| time (UTC) | temp F | wind direction | speed knots | gust knots | rain 1hr in | rain 24hr in | rain mn in | humidity % | barometer mb |
| 20260505152519 | 35 | 111 | 4.3 | 8.7 | 0.01 | 0.17 | 0.09 | 99 | 1014.8 |
| 20260505151519 | 35 | 93 | 5.2 | 8.7 | 0.01 | 0.17 | 0.09 | 99 | 1014.8 |
| 20260505150520 | 35 | 79 | 5.2 | 9.6 | 0.01 | 0.17 | 0.09 | 99 | 1014.8 |
| 20260505140519 | 35 | 77 | 6.1 | 11.3 | 0.02 | 0.16 | 0.08 | 99 | 1014.8 |
| 20260505124520 | 35 | 68 | 4.3 | 10.4 | 0.04 | 0.13 | 0.05 | 99 | 1014.6 |
| 20260505123519 | 35 | 62 | 4.3 | 10.4 | 0.05 | 0.13 | 0.05 | 99 | 1015.0 |
| 20260505122521 | 36 | 76 | 4.3 | 10.4 | 0.04 | 0.12 | 0.04 | 99 | 1015.3 |
| 20260505121542 | 37 | 48 | 3.5 | 10.4 | 0.04 | 0.12 | 0.04 | 99 | 1015.3 |
| 20260505120530 | 37 | 67 | 6.1 | 10.4 | 0.03 | 0.11 | 0.03 | 99 | 1015.5 |
| 20260505115521 | 39 | 61 | 3.5 | 10.4 | 0.02 | 0.10 | 0.02 | 99 | 1015.7 |
| 20260505114521 | 40 | 58 | 2.6 | 11.3 | 0.01 | 0.09 | 0.01 | 99 | 1015.8 |
| 20260505113542 | 40 | 84 | 3.5 | 11.3 | 0.00 | 0.08 | 0.00 | 99 | 1015.7 |
| 20260505112520 | 40 | 99 | 5.2 | 11.3 | 0.00 | 0.08 | 0.00 | 99 | 1015.8 |
| 20260505111520 | 40 | 98 | 4.3 | 11.3 | 0.00 | 0.08 | 0.00 | 99 | 1015.8 |
| 20260505110522 | 40 | 93 | 6.1 | 11.3 | 0.00 | 0.08 | 0.00 | 99 | 1015.7 |
| 20260505101520 | 42 | 87 | 6.1 | 9.6 | 0.00 | 0.08 | 0.00 | 96 | 1016.1 |
| 20260505100521 | 42 | 86 | 5.2 | 9.6 | 0.00 | 0.08 | 0.00 | 96 | 1016.5 |
| 20260505095543 | 42 | 78 | 5.2 | 7.0 | 0.00 | 0.08 | 0.00 | 97 | 1016.8 |
| 20260505094520 | 43 | 87 | 3.5 | 6.1 | 0.00 | 0.08 | 0.00 | 98 | 1017.3 |
| 20260505093519 | 43 | 96 | 2.6 | 6.1 | 0.00 | 0.08 | 0.00 | 98 | 1018.0 |
| 20260505092522 | 43 | 69 | 2.6 | 6.1 | 0.00 | 0.08 | 0.00 | 98 | 1017.7 |
| 20260505091519 | 44 | 0.0 | 4.3 | 0.00 | 0.08 | 0.00 | 98 | 1017.7 | |
| 20260505090521 | 44 | 74 | 0.9 | 4.3 | 0.00 | 0.08 | 0.00 | 98 | 1017.7 |
| 20260505085520 | 44 | 48 | 0.9 | 4.3 | 0.00 | 0.08 | 0.00 | 98 | 1017.7 |
| 20260505084519 | 44 | 110 | 2.6 | 4.3 | 0.00 | 0.08 | 0.00 | 98 | 1017.7 |
| 20260505083521 | 44 | 79 | 1.7 | 4.3 | 0.00 | 0.08 | 0.00 | 98 | 1018.0 |
| 20260505082522 | 44 | 113 | 0.0 | 2.6 | 0.00 | 0.08 | 0.00 | 98 | 1018.0 |
| 20260505081519 | 44 | 113 | 0.9 | 2.6 | 0.00 | 0.08 | 0.00 | 98 | 1018.1 |
| 20260505080543 | 44 | 0.0 | 2.6 | 0.00 | 0.08 | 0.00 | 98 | 1018.5 | |
| 20260505075520 | 44 | 90 | 0.0 | 2.6 | 0.00 | 0.08 | 0.00 | 98 | 1018.7 |
| 20260505074519 | 44 | 0.0 | 2.6 | 0.00 | 0.08 | 0.00 | 98 | 1018.4 | |
| 20260505073520 | 44 | 158 | 0.0 | 2.6 | 0.00 | 0.08 | 0.00 | 98 | 1017.5 |
| 20260505072520 | 44 | 136 | 0.0 | 2.6 | 0.00 | 0.08 | 0.00 | 98 | 1017.5 |
| 20260505071520 | 44 | 147 | 0.0 | 2.6 | 0.00 | 0.08 | 0.00 | 98 | 1017.7 |
| 20260505070522 | 45 | 150 | 0.9 | 2.6 | 0.00 | 0.08 | 0.00 | 99 | 1018.3 |
| 20260505065542 | 45 | 0.0 | 0.0 | 0.00 | 0.08 | 0.00 | 99 | 1018.3 | |
| 20260505064607 | 45 | 0.0 | 0.0 | 0.01 | 0.08 | 0.00 | 99 | 1018.7 | |
| 20260505063520 | 45 | 0.0 | 0.0 | 0.01 | 0.08 | 0.00 | 99 | 1018.7 | |
| 20260505062521 | 45 | 0.0 | 0.0 | 0.01 | 0.08 | 0.00 | 99 | 1019.0 | |
| 20260505061518 | 45 | 0.0 | 0.0 | 0.02 | 0.08 | 0.00 | 99 | 1019.3 | |
| 20260505060521 | 45 | 0.0 | 0.0 | 0.02 | 0.08 | 0.00 | 99 | 1019.8 | |
| 20260505055522 | 46 | 0.0 | 1.7 | 0.03 | 0.08 | 0.08 | 99 | 1019.5 | |
| 20260505054521 | 46 | 0.0 | 4.3 | 0.02 | 0.07 | 0.07 | 98 | 1019.4 | |
| 20260505053520 | 46 | 0.0 | 6.1 | 0.02 | 0.07 | 0.07 | 97 | 1019.0 | |
| 20260505052521 | 46 | 0.0 | 6.1 | 0.03 | 0.07 | 0.07 | 97 | 1019.8 | |
| 20260505051521 | 46 | 0.0 | 6.1 | 0.03 | 0.06 | 0.06 | 97 | 1019.6 | |
| 20260505050520 | 46 | 0.0 | 6.1 | 0.04 | 0.06 | 0.06 | 97 | 1019.5 | |
| 20260505041520 | 48 | 269 | 1.7 | 5.2 | 0.03 | 0.03 | 0.03 | 89 | 1019.1 |
| 20260505040519 | 50 | 288 | 2.6 | 5.2 | 0.02 | 0.02 | 0.02 | 82 | 1018.8 |
| 20260505035543 | 51 | 285 | 1.7 | 4.3 | 0.00 | 0.00 | 0.00 | 69 | 1018.9 |
| 20260505034520 | 51 | 279 | 1.7 | 3.5 | 0.00 | 0.00 | 0.00 | 69 | 1018.2 |
| 20260505033543 | 51 | 359 | 1.7 | 3.5 | 0.00 | 0.00 | 0.00 | 67 | 1017.9 |
| 20260505032519 | 51 | 65 | 1.7 | 3.5 | 0.00 | 0.00 | 0.00 | 66 | 1017.9 |
| 20260505031520 | 51 | 54 | 1.7 | 3.5 | 0.00 | 0.00 | 0.00 | 66 | 1017.6 |
| 20260505030520 | 51 | 70 | 1.7 | 4.3 | 0.00 | 0.00 | 0.00 | 64 | 1017.1 |
| 20260505025519 | 51 | 62 | 1.7 | 6.1 | 0.00 | 0.00 | 0.00 | 64 | 1016.8 |
| 20260505024520 | 51 | 68 | 1.7 | 6.1 | 0.00 | 0.00 | 0.00 | 64 | 1016.5 |
| 20260505023519 | 51 | 55 | 1.7 | 7.0 | 0.00 | 0.00 | 0.00 | 65 | 1015.9 |
| 20260505022521 | 51 | 69 | 1.7 | 9.6 | 0.00 | 0.00 | 0.00 | 65 | 1015.6 |
| 20260505021520 | 51 | 54 | 1.7 | 9.6 | 0.00 | 0.00 | 0.00 | 66 | 1015.5 |
| 20260505020520 | 51 | 78 | 1.7 | 12.2 | 0.00 | 0.00 | 0.00 | 66 | 1015.2 |
| 20260505015519 | 52 | 64 | 1.7 | 12.2 | 0.00 | 0.00 | 0.00 | 65 | 1015.2 |
| 20260505014520 | 53 | 62 | 2.6 | 12.2 | 0.00 | 0.00 | 0.00 | 61 | 1015.0 |
| 20260505013521 | 54 | 61 | 2.6 | 12.2 | 0.00 | 0.00 | 0.00 | 56 | 1015.1 |
| 20260505012520 | 54 | 26 | 4.3 | 12.2 | 0.00 | 0.00 | 0.00 | 55 | 1014.8 |
| 20260505011519 | 55 | 329 | 6.1 | 12.2 | 0.00 | 0.00 | 0.00 | 53 | 1015.1 |
| 20260505010522 | 56 | 300 | 6.1 | 12.2 | 0.00 | 0.00 | 0.00 | 49 | 1015.1 |
| 20260505005543 | 57 | 35 | 5.2 | 9.6 | 0.00 | 0.00 | 0.00 | 47 | 1014.8 |
| 20260505004521 | 57 | 352 | 3.5 | 9.6 | 0.00 | 0.00 | 0.00 | 46 | 1014.8 |
| 20260505003521 | 58 | 332 | 5.2 | 9.6 | 0.00 | 0.00 | 0.00 | 45 | 1014.5 |
| 20260505002542 | 58 | 333 | 5.2 | 9.6 | 0.00 | 0.00 | 0.00 | 44 | 1014.2 |
| 20260505001519 | 59 | 330 | 5.2 | 12.2 | 0.00 | 0.00 | 0.00 | 41 | 1014.5 |
| 20260505000545 | 60 | 8 | 6.1 | 12.2 | 0.00 | 0.00 | 0.00 | 37 | 1014.1 |
| 20260504235524 | 61 | 30 | 5.2 | 12.2 | 0.00 | 0.00 | 0.00 | 37 | 1014.5 |
| 20260504234543 | 61 | 55 | 4.3 | 12.2 | 0.00 | 0.00 | 0.00 | 37 | 1014.5 |
| 20260504233519 | 61 | 339 | 5.2 | 12.2 | 0.00 | 0.00 | 0.00 | 37 | 1014.2 |
| 20260504232542 | 61 | 359 | 5.2 | 13.9 | 0.00 | 0.00 | 0.00 | 37 | 1013.9 |
| 20260504231519 | 62 | 30 | 7.0 | 13.9 | 0.00 | 0.00 | 0.00 | 36 | 1013.8 |
| 20260504230519 | 62 | 36 | 5.2 | 13.9 | 0.00 | 0.00 | 0.00 | 36 | 1013.8 |
| 20260504225521 | 63 | 36 | 6.1 | 13.9 | 0.00 | 0.00 | 0.00 | 35 | 1013.5 |
| 20260504224521 | 63 | 41 | 6.1 | 13.9 | 0.00 | 0.00 | 0.00 | 35 | 1013.6 |
| 20260504223521 | 63 | 360 | 7.0 | 13.9 | 0.00 | 0.00 | 0.00 | 34 | 1014.2 |
| 20260504222521 | 63 | 359 | 7.8 | 13.9 | 0.00 | 0.00 | 0.00 | 34 | 1013.9 |
| 20260504221521 | 65 | 333 | 6.1 | 11.3 | 0.00 | 0.00 | 0.00 | 31 | 1013.9 |
| 20260504220522 | 67 | 328 | 4.3 | 11.3 | 0.00 | 0.00 | 0.00 | 26 | 1014.0 |
| 20260504215607 | 68 | 23 | 6.1 | 11.3 | 0.00 | 0.00 | 0.00 | 26 | 1014.3 |
| 20260504214544 | 69 | 42 | 3.5 | 9.6 | 0.00 | 0.00 | 0.00 | 25 | 1014.6 |
| 20260504213543 | 68 | 26 | 5.2 | 9.6 | 0.00 | 0.00 | 0.00 | 25 | 1014.6 |
| 20260504212519 | 70 | 6 | 6.1 | 9.6 | 0.00 | 0.00 | 0.00 | 25 | 1015.1 |
| 20260504211519 | 71 | 338 | 4.3 | 9.6 | 0.00 | 0.00 | 0.00 | 25 | 1015.3 |
| 20260504210519 | 71 | 304 | 3.5 | 9.6 | 0.00 | 0.00 | 0.00 | 24 | 1015.4 |
| 20260504205521 | 70 | 354 | 4.3 | 9.6 | 0.00 | 0.00 | 0.00 | 26 | 1015.5 |
| 20260504204521 | 70 | 354 | 4.3 | 8.7 | 0.00 | 0.00 | 0.00 | 24 | 1015.4 |
| 20260504203518 | 71 | 313 | 4.3 | 10.4 | 0.00 | 0.00 | 0.00 | 24 | 1016.1 |
| 20260504202521 | 71 | 297 | 3.5 | 10.4 | 0.00 | 0.00 | 0.00 | 24 | 1016.0 |
| 20260504201521 | 72 | 19 | 4.3 | 10.4 | 0.00 | 0.00 | 0.00 | 23 | 1016.2 |
| 20260504200545 | 71 | 34 | 2.6 | 10.4 | 0.00 | 0.00 | 0.00 | 24 | 1016.3 |
| 20260504195521 | 71 | 338 | 5.2 | 10.4 | 0.00 | 0.00 | 0.00 | 24 | 1016.6 |
| 20260504194520 | 70 | 341 | 2.6 | 10.4 | 0.00 | 0.00 | 0.00 | 25 | 1016.6 |
| 20260504193543 | 69 | 39 | 2.6 | 12.2 | 0.00 | 0.00 | 0.00 | 25 | 1016.7 |
| 20260504192519 | 67 | 76 | 6.1 | 12.2 | 0.00 | 0.00 | 0.00 | 26 | 1016.2 |
| 20260504191520 | 67 | 331 | 4.3 | 12.2 | 0.00 | 0.00 | 0.00 | 26 | 1016.0 |
| 20260504190545 | 66 | 267 | 5.2 | 12.2 | 0.00 | 0.00 | 0.00 | 25 | 1015.8 |
| 20260504185521 | 66 | 260 | 6.1 | 12.2 | 0.00 | 0.00 | 0.00 | 24 | 1016.2 |
| 20260504184521 | 67 | 280 | 3.5 | 12.2 | 0.00 | 0.00 | 0.00 | 23 | 1016.1 |
| 20260504183520 | 68 | 353 | 4.3 | 6.1 | 0.00 | 0.00 | 0.00 | 25 | 1016.9 |
| 20260504182545 | 68 | 257 | 2.6 | 6.1 | 0.00 | 0.00 | 0.00 | 25 | 1016.9 |
| 20260504181520 | 69 | 281 | 3.5 | 6.1 | 0.00 | 0.00 | 0.00 | 25 | 1017.0 |
| 20260504180520 | 70 | 298 | 2.6 | 7.0 | 0.00 | 0.00 | 0.00 | 25 | 1017.4 |
| 20260504175521 | 71 | 101 | 4.3 | 7.0 | 0.00 | 0.00 | 0.00 | 23 | 1017.8 |
| 20260504174545 | 73 | 283 | 2.6 | 8.7 | 0.00 | 0.00 | 0.00 | 23 | 1018.5 |
| 20260504173520 | 72 | 279 | 3.5 | 8.7 | 0.00 | 0.00 | 0.00 | 25 | 1018.6 |
| 20260504172520 | 71 | 239 | 3.5 | 10.4 | 0.00 | 0.00 | 0.00 | 24 | 1018.4 |
| 20260504171542 | 70 | 251 | 3.5 | 10.4 | 0.00 | 0.00 | 0.00 | 25 | 1018.6 |
| 20260504170519 | 70 | 293 | 3.5 | 10.4 | 0.00 | 0.00 | 0.00 | 25 | 1018.7 |